Ashley, IN

1:25 PM EDT on September 16, 2014 (GMT -0400)
Cather Farms | Change Station
CLOSE
Current Station
Personal Weather Station
Location: Hamilton, IN
Elevation: 932 ft
Nearby Weather Stations

Elev 932 ft 41.50 °N, 84.94 °W | Updated 4 minutes ago

Partly Cloudy
Partly Cloudy
60.7 °F
Feels Like 60.7 °F
N
0.0
Wind Variable Wind from NE
Gusts 10.0 mph

Today
High -- | Low -- °F
--% Chance of Precip.
Yesterday
High -- | Low -- °F
Precip. -- in
7:21 AM 7:47 PM
Last Quarter, 44% visible
Pressure 30.16 in
Visibility 10.0 miles
Clouds Scattered Clouds 3900 ft
Dew Point 48 °F
Humidity 64%
Rainfall 0.00 in
Snow Depth Not available.
UV 6 out of 12
Pollen 5.50 out of 12
Air Quality Not available.
Flu Activity Not available.
METAR KANQ 161715Z AUTO VRB03KT 10SM SCT039 18/08 A3016 RMK

More Conditions Fewer Conditions

Pressure 30.16 in
Visibility 10.0 miles
Clouds Scattered Clouds 3900 ft
Dew Point 48 °F
Humidity 64%
Rainfall 0.00 in
Snow Depth Not available.
UV 6 out of 12
Pollen 5.50 out of 12
Air Quality Not available.
Flu Activity Not available.
METAR KANQ 161715Z AUTO VRB03KT 10SM SCT039 18/08 A3016 RMK

More Conditions Fewer Conditions

10-Day Weather Forecast

Almanac

Astronomy

Sep. 16, 2014 Rise Set
Actual Time 7:21 AM EDT 7:47 PM EDT
Civil Twilight 6:53 AM EDT 8:15 PM EDT
Nautical Twilight 6:21 AM EDT 8:48 PM EDT
Astronomical Twilight 5:47 AM EDT 9:21 PM EDT
Moon 12:27 AM EDT 3:14 PM EDT
Length of Visible Light 13h 21m
Length of Day
12h 26m
Tomorrow will be 2m 44s shorter.
Last Quarter, 44% of the Moon is Illuminated
Today
Last Quarter
Sep 24
New
Oct 1
First Quarter
Oct 8
Full
Oct 15
Last Quarter

Today's Extremes

State Highs State Lows

Community

WunderPhotos

Upload Photos

1,753,838 photos uploaded!

Nearby

Snow Depth

Station Depth Elevation
No new snow has been reported.

Earthquake Activity

City Distance Mag. Time & Date
No recent earthquake activity has been reported nearby.
Minimum magnitude displayed is 2.5.

Coastal Water Temperatures

Place Temperature
No Stations Reporting

Nearby Weather Stations